Time;durP1;ratioP1;P1;durP2;ratioP2;P2;SDS_P1;SDS_P2;PMS_P1;PMS_P2;Temp;Humidity;BMP_temperature;BMP_pressure;BME280_temperature;BME280_humidity;BME280_pressure;Samples;Min_cycle;Max_cycle;Signal;HPM_P1;HPM_P2
2024/01/18 00:01:32;;;;;;;83.60;71.43;;;;;;;;;;5102336;27;20038;-78
2024/01/18 00:03:58;;;;;;;111.45;85.15;;;;;;;;;;5106215;27;20759;-77
2024/01/18 00:06:23;;;;;;;104.68;84.15;;;;;;;;;;5074126;27;20163;-77
2024/01/18 00:08:50;;;;;;;145.13;119.00;;;;;;;;;;5107500;27;20027;-76
2024/01/18 00:11:16;;;;;;;130.27;110.75;;;;;;;;;;5104311;27;20043;-73
2024/01/18 00:13:42;;;;;;;126.88;108.53;;;;;;;;;;5087429;27;20177;-77
2024/01/18 00:16:08;;;;;;;149.32;123.07;;;;;;;;;;5101655;27;20114;-78
2024/01/18 00:18:33;;;;;;;140.55;114.63;;;;;;;;;;5102072;27;20031;-74
2024/01/18 00:20:59;;;;;;;164.13;135.60;;;;;;;;;;5081048;27;20076;-74
2024/01/18 00:23:24;;;;;;;176.50;139.88;;;;;;;;;;5104316;27;20019;-74
2024/01/18 00:25:49;;;;;;;177.18;139.50;;;;;;;;;;5105242;27;20053;-74
2024/01/18 00:28:16;;;;;;;178.32;144.63;;;;;;;;;;5102223;27;20035;-75
2024/01/18 00:30:41;;;;;;;135.68;117.38;;;;;;;;;;5101497;27;20039;-76
2024/01/18 00:33:06;;;;;;;95.32;85.13;;;;;;;;;;5081221;27;20054;-74
2024/01/18 00:35:32;;;;;;;93.53;84.00;;;;;;;;;;5104700;27;20485;-75
2024/01/18 00:37:57;;;;;;;93.65;83.68;;;;;;;;;;5092901;27;20718;-77
2024/01/18 00:40:25;;;;;;;91.75;81.97;;;;;;;;;;5103714;27;20420;-74
2024/01/18 00:42:50;;;;;;;80.88;72.22;;;;;;;;;;5085562;27;20084;-77
2024/01/18 00:45:16;;;;;;;91.65;82.10;;;;;;;;;;5106127;27;20042;-77
2024/01/18 00:47:41;;;;;;;87.57;78.03;;;;;;;;;;5104542;27;20027;-78
2024/01/18 00:50:07;;;;;;;83.15;74.50;;;;;;;;;;5102875;27;20042;-74
2024/01/18 00:52:32;;;;;;;81.90;73.18;;;;;;;;;;5067835;28;20043;-77
2024/01/18 00:54:58;;;;;;;75.78;67.68;;;;;;;;;;5051614;28;20123;-74
2024/01/18 00:57:23;;;;;;;81.60;73.07;;;;;;;;;;5069699;28;20544;-80
2024/01/18 00:59:48;;;;;;;88.22;79.05;;;;;;;;;;5054454;28;20106;-81
2024/01/18 01:02:14;;;;;;;85.03;75.95;;;;;;;;;;5071486;28;20032;-80
2024/01/18 01:04:39;;;;;;;84.18;75.47;;;;;;;;;;5069430;28;20047;-76
2024/01/18 01:07:06;;;;;;;77.60;69.43;;;;;;;;;;5067775;28;20186;-77
2024/01/18 01:09:31;;;;;;;74.75;66.68;;;;;;;;;;5068132;28;20115;-74
2024/01/18 01:11:56;;;;;;;73.40;65.75;;;;;;;;;;5068795;28;20451;-79
2024/01/18 01:14:22;;;;;;;74.60;66.50;;;;;;;;;;5068227;28;20385;-77
2024/01/18 01:16:47;;;;;;;72.85;65.25;;;;;;;;;;5069493;28;20426;-77
2024/01/18 01:19:13;;;;;;;79.47;70.95;;;;;;;;;;5067921;28;20048;-75
2024/01/18 01:21:38;;;;;;;75.05;66.90;;;;;;;;;;5067962;28;20478;-73
2024/01/18 01:24:03;;;;;;;86.13;75.75;;;;;;;;;;5094484;27;20058;-79
2024/01/18 01:26:29;;;;;;;90.47;77.63;;;;;;;;;;5089934;27;20031;-80
2024/01/18 01:28:54;;;;;;;80.78;71.95;;;;;;;;;;5103766;27;20054;-77
2024/01/18 01:31:20;;;;;;;78.97;70.50;;;;;;;;;;5102472;27;20035;-81
2024/01/18 01:33:47;;;;;;;78.95;70.53;;;;;;;;;;5085978;27;20031;-78
2024/01/18 01:36:13;;;;;;;75.88;67.57;;;;;;;;;;5108547;27;20858;-80
2024/01/18 01:38:38;;;;;;;75.75;67.68;;;;;;;;;;5084848;27;20023;-81
2024/01/18 01:41:03;;;;;;;78.93;70.75;;;;;;;;;;5108289;27;20126;-76
2024/01/18 01:43:29;;;;;;;83.35;74.78;;;;;;;;;;5083481;27;20041;-81
2024/01/18 01:45:54;;;;;;;76.20;67.60;;;;;;;;;;5093696;27;20112;-78
2024/01/18 01:48:20;;;;;;;80.63;71.97;;;;;;;;;;5090063;27;20568;-82
2024/01/18 01:50:47;;;;;;;82.97;73.88;;;;;;;;;;5107676;27;20027;-81
2024/01/18 01:53:14;;;;;;;91.40;81.47;;;;;;;;;;5087137;27;20039;-80
2024/01/18 01:55:39;;;;;;;116.90;100.03;;;;;;;;;;5105111;27;20039;-81
2024/01/18 01:58:05;;;;;;;106.65;94.95;;;;;;;;;;5105131;27;20099;-82
2024/01/18 02:00:31;;;;;;;78.47;70.18;;;;;;;;;;5103512;27;20022;-80
2024/01/18 02:02:57;;;;;;;73.10;65.35;;;;;;;;;;5102974;27;20042;-80
2024/01/18 02:05:22;;;;;;;80.78;72.47;;;;;;;;;;5106521;27;20396;-79
2024/01/18 02:07:47;;;;;;;69.65;62.28;;;;;;;;;;5102647;27;20462;-75
2024/01/18 02:10:13;;;;;;;69.60;62.20;;;;;;;;;;5104928;27;20458;-74
2024/01/18 02:12:39;;;;;;;69.18;61.90;;;;;;;;;;5100630;27;20473;-73
2024/01/18 02:15:05;;;;;;;68.20;60.97;;;;;;;;;;5058109;28;20400;-78
2024/01/18 02:17:30;;;;;;;66.55;59.53;;;;;;;;;;5044186;28;20049;-76
2024/01/18 02:19:56;;;;;;;72.63;64.95;;;;;;;;;;5057939;28;20520;-74
2024/01/18 02:22:24;;;;;;;70.72;63.42;;;;;;;;;;5061212;28;20040;-73
2024/01/18 02:24:55;;;;;;;70.10;62.58;;;;;;;;;;5061040;28;20123;-80
2024/01/18 02:27:20;;;;;;;70.82;61.78;;;;;;;;;;5046378;28;20377;-77
2024/01/18 02:29:46;;;;;;;62.08;55.55;;;;;;;;;;5060238;28;20040;-80
2024/01/18 02:32:12;;;;;;;56.17;50.17;;;;;;;;;;5064273;28;20043;-77
2024/01/18 02:34:40;;;;;;;52.92;47.10;;;;;;;;;;5049723;28;20048;-76
2024/01/18 02:37:06;;;;;;;53.95;48.40;;;;;;;;;;5062849;28;20093;-80
2024/01/18 02:39:32;;;;;;;56.85;50.83;;;;;;;;;;5063788;28;20062;-81
2024/01/18 02:41:57;;;;;;;57.28;51.25;;;;;;;;;;5061531;28;20028;-79
2024/01/18 02:44:24;;;;;;;52.55;47.20;;;;;;;;;;5061756;28;20087;-76
2024/01/18 02:46:49;;;;;;;53.40;47.70;;;;;;;;;;5096840;27;20047;-75
2024/01/18 02:49:15;;;;;;;53.63;47.90;;;;;;;;;;5106534;27;20134;-82
2024/01/18 02:51:40;;;;;;;51.63;46.38;;;;;;;;;;5104753;28;20424;-80
2024/01/18 02:54:05;;;;;;;53.17;47.38;;;;;;;;;;5103803;27;20086;-76
2024/01/18 02:56:31;;;;;;;52.67;47.10;;;;;;;;;;5103690;27;20676;-79
2024/01/18 02:58:56;;;;;;;53.20;47.70;;;;;;;;;;5106080;27;20023;-77
2024/01/18 03:01:22;;;;;;;55.28;48.92;;;;;;;;;;5104939;27;20562;-75
2024/01/18 03:03:47;;;;;;;52.05;46.70;;;;;;;;;;5104905;28;20048;-76
2024/01/18 03:06:13;;;;;;;53.72;48.17;;;;;;;;;;5103016;28;20408;-76
2024/01/18 03:08:39;;;;;;;51.65;46.30;;;;;;;;;;5086025;28;20035;-74
2024/01/18 03:11:05;;;;;;;54.35;48.70;;;;;;;;;;5104197;28;20051;-80
2024/01/18 03:13:31;;;;;;;50.97;45.67;;;;;;;;;;5102346;28;20092;-76
2024/01/18 03:15:56;;;;;;;51.28;45.72;;;;;;;;;;5100772;28;20588;-75
2024/01/18 03:18:22;;;;;;;50.17;44.83;;;;;;;;;;5082511;28;20043;-74
2024/01/18 03:20:47;;;;;;;50.63;45.33;;;;;;;;;;5100345;28;20054;-75
2024/01/18 03:23:12;;;;;;;57.03;50.88;;;;;;;;;;5100629;28;20495;-74
2024/01/18 03:25:38;;;;;;;53.03;47.45;;;;;;;;;;5083425;28;20114;-74
2024/01/18 03:28:03;;;;;;;63.25;56.42;;;;;;;;;;5100567;27;20027;-79
2024/01/18 03:30:29;;;;;;;87.20;77.68;;;;;;;;;;5109093;27;20015;-80
2024/01/18 03:32:54;;;;;;;93.50;83.60;;;;;;;;;;5088576;27;20442;-75
2024/01/18 03:35:19;;;;;;;76.32;67.60;;;;;;;;;;5107763;27;20145;-75
2024/01/18 03:37:46;;;;;;;74.43;66.65;;;;;;;;;;5104772;27;20019;-75
2024/01/18 03:40:12;;;;;;;74.00;66.15;;;;;;;;;;5090170;27;20030;-75
2024/01/18 03:42:43;;;;;;;151.88;122.30;;;;;;;;;;5108244;27;20043;-76
2024/01/18 03:45:09;;;;;;;132.15;107.88;;;;;;;;;;5102884;27;20059;-79
2024/01/18 03:47:34;;;;;;;176.75;145.80;;;;;;;;;;5106957;27;20127;-75
2024/01/18 03:50:00;;;;;;;128.02;110.78;;;;;;;;;;5108627;27;20023;-78
2024/01/18 03:52:25;;;;;;;106.30;94.68;;;;;;;;;;5107463;27;20019;-78
2024/01/18 03:54:50;;;;;;;96.93;86.32;;;;;;;;;;5105068;27;20031;-83
2024/01/18 03:57:16;;;;;;;103.13;92.22;;;;;;;;;;5104651;27;20023;-75
2024/01/18 03:59:45;;;;;;;88.43;78.28;;;;;;;;;;5091977;27;20031;-76
2024/01/18 04:02:11;;;;;;;88.60;79.18;;;;;;;;;;5103414;27;20131;-74
2024/01/18 04:04:36;;;;;;;81.57;72.75;;;;;;;;;;5105098;27;20264;-73
2024/01/18 04:07:02;;;;;;;93.50;83.55;;;;;;;;;;5104672;27;20058;-72
2024/01/18 04:09:27;;;;;;;108.03;96.38;;;;;;;;;;5104204;27;20095;-71
2024/01/18 04:11:52;;;;;;;105.10;94.22;;;;;;;;;;5102286;27;20455;-71
2024/01/18 04:14:18;;;;;;;102.07;91.65;;;;;;;;;;5103123;27;20023;-72
2024/01/18 04:16:43;;;;;;;143.32;127.95;;;;;;;;;;5106222;27;20492;-71
2024/01/18 04:19:09;;;;;;;96.72;86.72;;;;;;;;;;5101248;27;20461;-77
2024/01/18 04:21:34;;;;;;;93.07;83.32;;;;;;;;;;5101697;27;20641;-72
2024/01/18 04:23:59;;;;;;;88.63;79.40;;;;;;;;;;5101974;27;20031;-71
2024/01/18 04:26:25;;;;;;;87.80;78.70;;;;;;;;;;5103859;27;20532;-73
2024/01/18 04:28:51;;;;;;;101.32;90.35;;;;;;;;;;5106552;27;20023;-73
2024/01/18 04:31:16;;;;;;;101.05;88.95;;;;;;;;;;5099185;27;20030;-72
2024/01/18 04:33:42;;;;;;;77.38;69.18;;;;;;;;;;5100691;27;20438;-74
2024/01/18 04:36:07;;;;;;;65.43;58.50;;;;;;;;;;5088257;27;20465;-72
2024/01/18 04:38:32;;;;;;;60.22;54.03;;;;;;;;;;5104133;27;20023;-72
2024/01/18 04:40:58;;;;;;;61.13;54.72;;;;;;;;;;5086171;27;20050;-77
2024/01/18 04:43:25;;;;;;;55.28;49.42;;;;;;;;;;5106419;27;20357;-77
2024/01/18 04:45:50;;;;;;;51.47;46.22;;;;;;;;;;5105898;27;20506;-73
2024/01/18 04:48:16;;;;;;;52.50;46.90;;;;;;;;;;5104021;27;20035;-73
2024/01/18 04:50:41;;;;;;;50.85;45.65;;;;;;;;;;5102200;27;20357;-78
2024/01/18 04:53:07;;;;;;;50.10;44.88;;;;;;;;;;5086779;27;20020;-74
2024/01/18 04:55:32;;;;;;;49.70;44.35;;;;;;;;;;5103723;27;20033;-73
2024/01/18 04:57:58;;;;;;;51.65;46.33;;;;;;;;;;5097059;27;20031;-78
2024/01/18 05:00:23;;;;;;;53.75;48.05;;;;;;;;;;5098400;27;20039;-73
2024/01/18 05:02:49;;;;;;;56.55;50.78;;;;;;;;;;5098983;27;20020;-76
2024/01/18 05:05:14;;;;;;;61.78;55.38;;;;;;;;;;5104491;27;20433;-74
2024/01/18 05:07:43;;;;;;;68.22;61.13;;;;;;;;;;5086526;27;20031;-74
2024/01/18 05:10:09;;;;;;;64.30;57.55;;;;;;;;;;5080444;28;20051;-77
2024/01/18 05:12:35;;;;;;;61.30;54.95;;;;;;;;;;5086278;28;20028;-77
2024/01/18 05:15:01;;;;;;;60.13;53.90;;;;;;;;;;5082938;28;20035;-77
2024/01/18 05:17:35;;;;;;;59.53;53.30;;;;;;;;;;5084080;28;20040;-77
2024/01/18 05:20:03;;;;;;;51.63;46.22;;;;;;;;;;5087026;28;20027;-78
2024/01/18 05:22:30;;;;;;;54.93;49.03;;;;;;;;;;5086330;28;20170;-77
2024/01/18 05:24:56;;;;;;;53.33;47.80;;;;;;;;;;5087365;28;20810;-84
2024/01/18 05:27:21;;;;;;;55.47;49.45;;;;;;;;;;5087664;28;20028;-76
2024/01/18 05:29:47;;;;;;;57.92;51.83;;;;;;;;;;5085779;28;20050;-73
2024/01/18 05:32:13;;;;;;;56.30;50.38;;;;;;;;;;5085384;28;20350;-74
2024/01/18 05:34:38;;;;;;;56.97;51.15;;;;;;;;;;5080956;28;20120;-73
2024/01/18 05:37:04;;;;;;;59.50;53.22;;;;;;;;;;5077888;28;20332;-71
2024/01/18 05:39:29;;;;;;;59.75;53.58;;;;;;;;;;5084613;27;20114;-75
2024/01/18 05:41:56;;;;;;;60.22;54.15;;;;;;;;;;5082644;28;20075;-76
2024/01/18 05:44:21;;;;;;;61.83;55.03;;;;;;;;;;5084517;28;20253;-74
2024/01/18 05:46:47;;;;;;;61.85;55.25;;;;;;;;;;5085087;28;20024;-73
2024/01/18 05:49:17;;;;;;;61.88;55.28;;;;;;;;;;5085220;28;20057;-77
2024/01/18 05:51:43;;;;;;;59.88;53.55;;;;;;;;;;5085414;28;20080;-77
2024/01/18 05:54:08;;;;;;;64.15;57.38;;;;;;;;;;5083849;28;20039;-74
2024/01/18 05:56:34;;;;;;;54.45;49.05;;;;;;;;;;5082891;28;20156;-77
2024/01/18 05:58:59;;;;;;;80.78;70.53;;;;;;;;;;5077481;28;20028;-79
2024/01/18 06:01:24;;;;;;;88.00;77.90;;;;;;;;;;5087278;28;20035;-78
2024/01/18 06:03:50;;;;;;;82.05;72.80;;;;;;;;;;5078988;28;20527;-76
2024/01/18 06:06:15;;;;;;;67.10;59.85;;;;;;;;;;5078036;28;20048;-73
2024/01/18 06:08:41;;;;;;;92.80;82.75;;;;;;;;;;5078117;28;20036;-75
2024/01/18 06:11:07;;;;;;;69.47;62.28;;;;;;;;;;5091782;27;20363;-73
2024/01/18 06:13:34;;;;;;;63.28;56.67;;;;;;;;;;5103558;27;22085;-71
2024/01/18 06:16:00;;;;;;;64.20;57.28;;;;;;;;;;5087960;27;20062;-73
2024/01/18 06:18:26;;;;;;;62.17;55.40;;;;;;;;;;5107899;27;20030;-75
2024/01/18 06:20:52;;;;;;;77.03;68.60;;;;;;;;;;5103971;27;21409;-74
2024/01/18 06:23:17;;;;;;;87.78;78.38;;;;;;;;;;5084478;27;20023;-71
2024/01/18 06:25:42;;;;;;;78.15;70.00;;;;;;;;;;5080060;27;20496;-77
2024/01/18 06:28:08;;;;;;;66.60;59.45;;;;;;;;;;5088241;27;20031;-73
2024/01/18 06:30:33;;;;;;;58.40;52.45;;;;;;;;;;5099677;27;20043;-72
2024/01/18 06:32:58;;;;;;;53.00;47.47;;;;;;;;;;5098302;27;20027;-74
2024/01/18 06:35:24;;;;;;;62.65;56.05;;;;;;;;;;5097935;27;20035;-74
2024/01/18 06:37:51;;;;;;;110.47;95.45;;;;;;;;;;5086440;27;20107;-75
2024/01/18 06:40:18;;;;;;;135.13;120.57;;;;;;;;;;5096948;27;20492;-73
2024/01/18 06:42:43;;;;;;;100.85;90.00;;;;;;;;;;5099334;27;20054;-77
2024/01/18 06:45:09;;;;;;;127.20;113.55;;;;;;;;;;5077635;28;20039;-79
2024/01/18 06:47:35;;;;;;;88.40;78.97;;;;;;;;;;5097036;27;20019;-77
2024/01/18 06:50:00;;;;;;;95.25;85.30;;;;;;;;;;5098499;27;20523;-81
2024/01/18 06:52:26;;;;;;;120.03;107.50;;;;;;;;;;5105804;27;20034;-77
2024/01/18 06:54:51;;;;;;;118.50;105.78;;;;;;;;;;5099776;27;20034;-77
2024/01/18 06:57:17;;;;;;;121.80;109.05;;;;;;;;;;5104561;27;20567;-77
2024/01/18 06:59:46;;;;;;;79.75;71.30;;;;;;;;;;5107175;27;20526;-78
2024/01/18 07:02:12;;;;;;;92.95;82.90;;;;;;;;;;5103136;27;20127;-81
2024/01/18 07:04:37;;;;;;;61.55;55.03;;;;;;;;;;5101847;28;20768;-76
2024/01/18 07:07:03;;;;;;;74.93;65.35;;;;;;;;;;5102409;27;20576;-77
2024/01/18 07:09:29;;;;;;;68.93;61.33;;;;;;;;;;5104229;28;20442;-80
2024/01/18 07:11:54;;;;;;;70.18;61.83;;;;;;;;;;5100537;28;20141;-76
2024/01/18 07:14:21;;;;;;;85.38;74.63;;;;;;;;;;5116300;28;20095;-81
2024/01/18 07:16:47;;;;;;;68.50;61.17;;;;;;;;;;5118528;28;20023;-76
2024/01/18 07:19:14;;;;;;;80.40;71.40;;;;;;;;;;5117622;28;20064;-77
2024/01/18 07:21:40;;;;;;;70.53;60.58;;;;;;;;;;5115835;28;20023;-78
2024/01/18 07:24:05;;;;;;;65.65;56.95;;;;;;;;;;5119598;28;20030;-78
2024/01/18 07:26:32;;;;;;;71.82;61.47;;;;;;;;;;5116279;28;20031;-81
2024/01/18 07:28:57;;;;;;;68.68;60.78;;;;;;;;;;5118525;28;20015;-78
2024/01/18 07:31:22;;;;;;;78.65;70.32;;;;;;;;;;5116242;28;20445;-77
2024/01/18 07:33:50;;;;;;;65.35;58.38;;;;;;;;;;5119074;28;20019;-78
2024/01/18 07:36:15;;;;;;;77.13;68.70;;;;;;;;;;5117496;28;20039;-78
2024/01/18 07:38:41;;;;;;;76.00;67.80;;;;;;;;;;5117907;28;22955;-78
2024/01/18 07:41:07;;;;;;;83.60;73.80;;;;;;;;;;5118556;28;20643;-77
2024/01/18 07:43:33;;;;;;;74.72;63.80;;;;;;;;;;5118186;28;20041;-77
2024/01/18 07:45:58;;;;;;;76.88;68.72;;;;;;;;;;5119941;28;20027;-81
2024/01/18 07:48:25;;;;;;;69.43;61.75;;;;;;;;;;5119747;28;20027;-79
2024/01/18 07:50:50;;;;;;;73.72;65.65;;;;;;;;;;5120114;28;20023;-78
2024/01/18 07:53:15;;;;;;;73.43;65.60;;;;;;;;;;5117889;28;20030;-77
2024/01/18 07:55:43;;;;;;;71.22;63.60;;;;;;;;;;5119955;28;20053;-78
2024/01/18 07:58:08;;;;;;;78.22;69.70;;;;;;;;;;5119551;28;20023;-78
2024/01/18 08:00:34;;;;;;;82.30;73.78;;;;;;;;;;5117000;28;20035;-80
2024/01/18 08:02:59;;;;;;;93.45;83.15;;;;;;;;;;5119233;28;20031;-80
2024/01/18 08:05:27;;;;;;;80.43;71.10;;;;;;;;;;5119947;28;20027;-77
2024/01/18 08:07:52;;;;;;;79.47;71.03;;;;;;;;;;5120257;28;20059;-76
2024/01/18 08:10:18;;;;;;;85.10;75.88;;;;;;;;;;5117628;28;20440;-75
2024/01/18 08:12:44;;;;;;;82.68;73.97;;;;;;;;;;5096030;28;20042;-77
2024/01/18 08:15:11;;;;;;;78.43;69.90;;;;;;;;;;5122846;27;20385;-77
2024/01/18 08:17:36;;;;;;;90.85;79.07;;;;;;;;;;5100434;27;20460;-76
2024/01/18 08:20:03;;;;;;;93.22;81.90;;;;;;;;;;5121533;27;20031;-79
2024/01/18 08:22:29;;;;;;;88.53;77.68;;;;;;;;;;5124118;27;20058;-79
2024/01/18 08:24:56;;;;;;;102.40;88.13;;;;;;;;;;5124957;27;20074;-78
2024/01/18 08:27:22;;;;;;;173.48;130.05;;;;;;;;;;5121716;27;20863;-77
2024/01/18 08:29:47;;;;;;;108.10;95.28;;;;;;;;;;5119954;27;20103;-78
2024/01/18 08:32:13;;;;;;;179.65;137.93;;;;;;;;;;5118250;27;20419;-77
2024/01/18 08:34:38;;;;;;;119.85;97.43;;;;;;;;;;5122888;27;20023;-78
2024/01/18 08:37:04;;;;;;;100.95;87.50;;;;;;;;;;5122773;27;20372;-77
2024/01/18 08:39:30;;;;;;;161.57;123.90;;;;;;;;;;5104127;27;20023;-81
2024/01/18 08:41:59;;;;;;;99.60;81.38;;;;;;;;;;5122001;27;20051;-79
2024/01/18 08:44:24;;;;;;;80.00;69.88;;;;;;;;;;5121507;27;20122;-76
2024/01/18 08:46:49;;;;;;;81.00;71.85;;;;;;;;;;5123556;27;20436;-81
2024/01/18 08:49:16;;;;;;;188.30;128.80;;;;;;;;;;5103665;27;20031;-81
2024/01/18 08:51:41;;;;;;;127.07;96.75;;;;;;;;;;5122936;27;20429;-75
2024/01/18 08:54:07;;;;;;;68.78;61.30;;;;;;;;;;5118992;27;20034;-79
2024/01/18 08:56:35;;;;;;;74.00;66.32;;;;;;;;;;5122355;27;20050;-78
2024/01/18 08:59:00;;;;;;;79.65;71.25;;;;;;;;;;5121958;27;20847;-75
2024/01/18 09:01:25;;;;;;;106.43;86.75;;;;;;;;;;5123233;27;20122;-80
2024/01/18 09:03:51;;;;;;;74.22;63.92;;;;;;;;;;5121538;27;20055;-76
2024/01/18 09:06:16;;;;;;;84.25;74.90;;;;;;;;;;5120113;27;20070;-78
2024/01/18 09:08:42;;;;;;;128.02;98.85;;;;;;;;;;5123721;27;20038;-75
2024/01/18 09:11:08;;;;;;;95.28;71.68;;;;;;;;;;5123537;27;20074;-79
2024/01/18 09:13:33;;;;;;;157.25;111.22;;;;;;;;;;5123277;27;20446;-80
2024/01/18 09:15:59;;;;;;;99.15;83.30;;;;;;;;;;5121651;27;20037;-80
2024/01/18 09:18:25;;;;;;;117.70;95.70;;;;;;;;;;5121335;27;20027;-77
2024/01/18 09:20:50;;;;;;;65.70;57.92;;;;;;;;;;5120060;27;20358;-75
2024/01/18 09:23:16;;;;;;;56.30;47.90;;;;;;;;;;5122424;27;20038;-80
2024/01/18 09:25:41;;;;;;;42.50;37.35;;;;;;;;;;5121432;27;20075;-77
2024/01/18 09:28:07;;;;;;;75.78;58.80;;;;;;;;;;5121601;27;20026;-77
2024/01/18 09:30:33;;;;;;;87.25;69.78;;;;;;;;;;5121845;27;20111;-78
2024/01/18 09:32:58;;;;;;;64.45;48.95;;;;;;;;;;5121554;27;20397;-84
2024/01/18 09:35:25;;;;;;;41.90;37.38;;;;;;;;;;5118826;27;20096;-78
2024/01/18 09:37:50;;;;;;;58.55;47.67;;;;;;;;;;5104517;27;20863;-77
2024/01/18 09:40:16;;;;;;;168.95;113.63;;;;;;;;;;5110384;27;20059;-77
2024/01/18 09:42:43;;;;;;;77.57;57.83;;;;;;;;;;5120952;27;20030;-78
2024/01/18 09:45:09;;;;;;;44.25;37.70;;;;;;;;;;5103232;27;20055;-76
2024/01/18 09:47:34;;;;;;;146.50;100.55;;;;;;;;;;5102991;27;20346;-78
2024/01/18 09:50:00;;;;;;;57.78;46.45;;;;;;;;;;5101589;27;20065;-77
2024/01/18 09:52:25;;;;;;;43.60;38.90;;;;;;;;;;5100720;27;20199;-77
2024/01/18 09:54:51;;;;;;;110.28;85.68;;;;;;;;;;5102837;27;20077;-77
2024/01/18 09:57:21;;;;;;;82.45;68.53;;;;;;;;;;5107815;27;20027;-78
2024/01/18 09:59:47;;;;;;;48.95;41.08;;;;;;;;;;5100577;27;20050;-78
2024/01/18 10:02:12;;;;;;;118.63;105.60;;;;;;;;;;5105345;27;20427;-79
2024/01/18 10:04:39;;;;;;;92.07;77.35;;;;;;;;;;5101736;27;20470;-77
2024/01/18 10:07:04;;;;;;;50.80;43.38;;;;;;;;;;5101040;27;20027;-77
2024/01/18 10:09:29;;;;;;;83.35;71.57;;;;;;;;;;5103029;27;20031;-81
2024/01/18 10:11:55;;;;;;;51.35;45.85;;;;;;;;;;5104647;27;20066;-77
2024/01/18 10:14:52;;;;;;;62.88;54.40;;;;;;;;;;5107653;27;20430;-79
2024/01/18 10:17:23;;;;;;;39.15;35.20;;;;;;;;;;5060306;28;20054;-78
2024/01/18 10:19:55;;;;;;;42.80;38.25;;;;;;;;;;5054591;28;20380;-79
2024/01/18 10:22:20;;;;;;;40.03;35.85;;;;;;;;;;5039989;28;20024;-82
2024/01/18 10:24:46;;;;;;;39.35;35.20;;;;;;;;;;5059427;28;20152;-76
2024/01/18 10:27:12;;;;;;;40.95;36.50;;;;;;;;;;5062838;28;20121;-81
2024/01/18 10:29:38;;;;;;;44.20;38.05;;;;;;;;;;5072008;28;20205;-78
2024/01/18 10:32:04;;;;;;;42.20;36.90;;;;;;;;;;5070502;28;20036;-80
2024/01/18 10:34:36;;;;;;;47.10;39.15;;;;;;;;;;5057475;28;20036;-78
2024/01/18 10:37:03;;;;;;;42.25;36.15;;;;;;;;;;5071311;28;20965;-79
2024/01/18 10:39:37;;;;;;;38.28;31.60;;;;;;;;;;5071482;28;20032;-78
2024/01/18 10:42:07;;;;;;;74.70;51.30;;;;;;;;;;5061182;28;20376;-78
2024/01/18 10:44:33;;;;;;;74.20;53.10;;;;;;;;;;5071580;28;20070;-79
2024/01/18 10:46:58;;;;;;;41.60;35.65;;;;;;;;;;5067480;28;20036;-77
2024/01/18 10:49:25;;;;;;;46.95;39.05;;;;;;;;;;5064382;28;20032;-78
2024/01/18 10:51:52;;;;;;;39.10;34.90;;;;;;;;;;5074241;28;20089;-80
2024/01/18 10:54:17;;;;;;;52.25;43.70;;;;;;;;;;5109450;27;20106;-77
2024/01/18 10:56:42;;;;;;;38.40;34.30;;;;;;;;;;5103877;27;20115;-79
2024/01/18 10:59:09;;;;;;;71.07;54.08;;;;;;;;;;5110120;27;20027;-76
2024/01/18 11:01:34;;;;;;;66.32;50.38;;;;;;;;;;5115046;27;20104;-79
2024/01/18 11:04:00;;;;;;;54.78;44.58;;;;;;;;;;5118861;27;20031;-77
2024/01/18 11:06:27;;;;;;;124.18;90.38;;;;;;;;;;5129961;27;20027;-78
2024/01/18 11:08:54;;;;;;;65.55;56.78;;;;;;;;;;5120315;28;20027;-71
2024/01/18 11:11:20;;;;;;;81.30;72.60;;;;;;;;;;5111287;28;20137;-76
2024/01/18 11:13:46;;;;;;;65.03;55.65;;;;;;;;;;5106483;28;20027;-74
2024/01/18 11:16:12;;;;;;;81.40;62.78;;;;;;;;;;5114292;28;20494;-75
2024/01/18 11:18:38;;;;;;;58.63;47.88;;;;;;;;;;5103144;28;20150;-75
2024/01/18 11:21:09;;;;;;;44.13;38.33;;;;;;;;;;5116330;28;20055;-76
2024/01/18 11:23:35;;;;;;;47.55;41.55;;;;;;;;;;5098721;28;20032;-76
2024/01/18 11:26:04;;;;;;;44.28;39.28;;;;;;;;;;5110955;28;20031;-76
2024/01/18 11:28:30;;;;;;;47.03;41.92;;;;;;;;;;5097123;28;20027;-74
2024/01/18 11:30:55;;;;;;;43.03;38.50;;;;;;;;;;5101454;28;20051;-76
2024/01/18 11:33:20;;;;;;;51.15;44.30;;;;;;;;;;5111076;28;20434;-75
2024/01/18 11:35:47;;;;;;;68.70;58.45;;;;;;;;;;5117112;28;20035;-77
2024/01/18 11:38:16;;;;;;;65.95;59.00;;;;;;;;;;5114910;28;20023;-74
2024/01/18 11:40:42;;;;;;;84.65;75.43;;;;;;;;;;5112587;28;20038;-77
2024/01/18 11:43:08;;;;;;;65.80;57.67;;;;;;;;;;5120285;28;20031;-76
2024/01/18 11:45:34;;;;;;;125.47;111.50;;;;;;;;;;5116213;28;20038;-74
2024/01/18 11:47:59;;;;;;;99.05;87.25;;;;;;;;;;5114765;27;20055;-76
2024/01/18 11:50:25;;;;;;;79.13;68.32;;;;;;;;;;5111593;27;20120;-76
2024/01/18 11:52:51;;;;;;;108.78;97.55;;;;;;;;;;5118560;27;20023;-74
2024/01/18 11:55:17;;;;;;;106.45;95.50;;;;;;;;;;5122587;27;20049;-75
2024/01/18 11:57:43;;;;;;;74.93;66.75;;;;;;;;;;5107902;27;20453;-75
2024/01/18 12:00:10;;;;;;;72.25;65.20;;;;;;;;;;5108017;27;20431;-75
2024/01/18 12:02:36;;;;;;;99.88;89.38;;;;;;;;;;5113932;27;20026;-74
2024/01/18 12:05:03;;;;;;;76.97;68.68;;;;;;;;;;5120519;27;20087;-73
2024/01/18 12:07:29;;;;;;;74.13;66.07;;;;;;;;;;5117913;27;20019;-75
2024/01/18 12:09:54;;;;;;;70.00;59.53;;;;;;;;;;5111552;27;20030;-74
2024/01/18 12:12:19;;;;;;;74.00;61.50;;;;;;;;;;5098938;27;20027;-74
2024/01/18 12:14:45;;;;;;;141.00;106.53;;;;;;;;;;5106533;27;20454;-77
2024/01/18 12:17:12;;;;;;;82.20;72.07;;;;;;;;;;5112125;27;20015;-75
2024/01/18 12:19:38;;;;;;;99.20;79.70;;;;;;;;;;5104129;27;20050;-79
2024/01/18 12:22:10;;;;;;;140.10;97.43;;;;;;;;;;5106017;27;20015;-77
2024/01/18 12:24:35;;;;;;;83.60;64.20;;;;;;;;;;5115301;27;20028;-77
2024/01/18 12:27:02;;;;;;;87.10;69.78;;;;;;;;;;5109715;27;20434;-75
2024/01/18 12:29:28;;;;;;;109.13;88.28;;;;;;;;;;5108075;27;20439;-73
2024/01/18 12:31:54;;;;;;;138.73;95.97;;;;;;;;;;5105413;27;20106;-74
2024/01/18 12:34:20;;;;;;;128.15;96.45;;;;;;;;;;5105596;27;20023;-76
2024/01/18 12:36:46;;;;;;;156.80;118.75;;;;;;;;;;5111779;27;20035;-74
2024/01/18 12:39:12;;;;;;;233.20;168.25;;;;;;;;;;5108539;27;20042;-74
2024/01/18 12:41:37;;;;;;;124.32;96.38;;;;;;;;;;5105183;27;20465;-75
2024/01/18 12:44:06;;;;;;;185.77;128.75;;;;;;;;;;5105405;27;20028;-77
2024/01/18 12:46:31;;;;;;;140.30;97.15;;;;;;;;;;5105997;27;20067;-74
2024/01/18 12:48:57;;;;;;;174.20;120.63;;;;;;;;;;5104247;27;20394;-76
2024/01/18 12:51:22;;;;;;;109.43;89.32;;;;;;;;;;5103372;27;20102;-76
2024/01/18 12:53:48;;;;;;;147.02;101.05;;;;;;;;;;5104410;27;20964;-76
2024/01/18 12:56:16;;;;;;;103.18;81.13;;;;;;;;;;5105975;27;20027;-75
2024/01/18 12:58:42;;;;;;;216.60;139.43;;;;;;;;;;5108109;27;20020;-74
2024/01/18 13:01:07;;;;;;;149.68;105.63;;;;;;;;;;5109597;27;20068;-75
2024/01/18 13:03:32;;;;;;;126.90;91.68;;;;;;;;;;5104051;27;20102;-76
2024/01/18 13:05:58;;;;;;;92.13;79.07;;;;;;;;;;5111861;27;20035;-74
2024/01/18 13:08:23;;;;;;;73.88;63.72;;;;;;;;;;5118297;27;20467;-76
2024/01/18 13:10:48;;;;;;;84.82;68.32;;;;;;;;;;5115908;27;20043;-76
2024/01/18 13:13:15;;;;;;;78.78;65.18;;;;;;;;;;5109259;27;20487;-74
2024/01/18 13:15:40;;;;;;;130.02;89.57;;;;;;;;;;5119446;27;20434;-78
2024/01/18 13:18:11;;;;;;;80.22;69.65;;;;;;;;;;5115320;27;20099;-75
2024/01/18 13:20:37;;;;;;;100.43;80.68;;;;;;;;;;5106554;27;20027;-75
2024/01/18 13:23:03;;;;;;;95.15;75.95;;;;;;;;;;5106953;27;20031;-79
2024/01/18 13:25:28;;;;;;;76.43;66.88;;;;;;;;;;5116938;27;20062;-75
2024/01/18 13:27:54;;;;;;;91.40;77.03;;;;;;;;;;5119993;27;20055;-75
2024/01/18 13:30:19;;;;;;;112.68;99.57;;;;;;;;;;5119285;27;20070;-76
2024/01/18 13:32:45;;;;;;;117.30;99.45;;;;;;;;;;5116026;27;20354;-73
2024/01/18 13:35:10;;;;;;;132.15;106.30;;;;;;;;;;5111965;27;20106;-76
2024/01/18 13:37:36;;;;;;;120.90;100.38;;;;;;;;;;5116842;27;20047;-73
2024/01/18 13:40:02;;;;;;;125.68;104.18;;;;;;;;;;5119920;27;20402;-76
2024/01/18 13:42:27;;;;;;;114.60;97.35;;;;;;;;;;5117820;27;20082;-76
2024/01/18 13:44:53;;;;;;;154.73;126.47;;;;;;;;;;5099908;27;20031;-76
2024/01/18 13:47:20;;;;;;;139.90;116.88;;;;;;;;;;5116821;27;20037;-76
2024/01/18 13:49:48;;;;;;;144.23;126.38;;;;;;;;;;5115208;27;20031;-76
2024/01/18 13:52:17;;;;;;;125.50;106.35;;;;;;;;;;5118340;27;20056;-76
2024/01/18 13:54:42;;;;;;;117.57;100.30;;;;;;;;;;5114961;27;20344;-75
2024/01/18 13:57:07;;;;;;;127.38;111.03;;;;;;;;;;5114059;27;20030;-77
2024/01/18 13:59:33;;;;;;;119.78;102.28;;;;;;;;;;5108750;27;20102;-76
2024/01/18 14:01:58;;;;;;;109.28;92.05;;;;;;;;;;5116822;27;20018;-75
2024/01/18 14:04:23;;;;;;;81.15;72.55;;;;;;;;;;5113973;27;20023;-76